• Join FlightAware (Why Join?)
  • Login
  • US Flag 
12:47PM EDT


 

Airport Tracker/Info


-or-


 

Live Flight TrackerFlight Track Log ✈ DAL6034 ✈ 15-Sep-2013 ✈ KMHT - KLGA

Flight Track Log - Related Links

Times and Time Zones

All times are in EDT time to prevent confusion due to time zone crossing. See the DAL6034 flight status page for this flight to view local times or setup timezone preferences in your user account.

Time Position Orientation Groundspeed Altitude Reporting Facility
EDT Latitude Longitude Course Direction KTS MPH feet Rate Location/Type
05:51PM 42.9500 -71.4333 238° Southwest 163 188 1,200  Level KA90
05:53PM 43.0197 -71.4917 329° Northwest 224 258 4,500 2,100 Climbing Boston Center
05:54PM 43.0244 -71.5653 275° West 198 228 6,500 2,400 Climbing Boston Center
05:55PM 42.6552 -71.7624 232° Southwest  Level Estimated
05:55PM 43.0314 -71.6647 275° West 239 275 9,300  Level Boston Center
05:56PM 42.6068 -71.8683 238° Southwest  Level FlightAware Approximate
05:56PM 43.0172 -71.7500 257° West 251 289 10,800  Level Boston Center
05:57PM 42.5583 -71.9740 238° Southwest  Level FlightAware Approximate
05:57PM 42.9572 -71.8303 224° Southwest 273 314 13,400  Level Boston Center
05:58PM 42.9033 -71.8903 219° Southwest 287 330 14,300 1,020 Climbing Boston Center
05:59PM 42.8289 -71.9786 221° Southwest 317 365 15,500 840 Climbing Boston Center
06:00PM 42.7750 -72.0667 230° Southwest 335 386 16,000 180 Climbing Boston Center
06:01PM 42.7064 -72.1772 230° Southwest 352 405 15,900 -60 Descending Boston Center
06:02PM 42.6461 -72.2764 230° Southwest 357 411 15,900  Level Boston Center
06:03PM 42.5839 -72.3781 230° Southwest 357 411 15,900  Level Boston Center
06:04PM 42.5214 -72.4794 230° Southwest 357 411 15,900  Level Boston Center
06:05PM 42.4628 -72.5694 229° Southwest 357 411 15,900  Level Boston Center
06:06PM 42.4003 -72.6706 230° Southwest 357 411 15,900 -420 Level Boston Center
06:07PM 42.3375 -72.7714 230° Southwest 357 411 15,100 -1,020 Descending Boston Center
06:08PM 42.2703 -72.8778 230° Southwest 357 411 13,900 -660 Descending Boston Center
06:09PM 42.2136 -72.9669 229° Southwest 357 411 13,900  Level Boston Center
06:10PM 42.1444 -73.0758 229° Southwest 357 411 13,900  Level Boston Center
06:11PM 42.0897 -73.1675 231° Southwest 357 411 13,900  Level Boston Center
06:12PM 42.0200 -73.2756 229° Southwest 357 411 13,900  Level Boston Center
06:13PM 41.9631 -73.3669 230° Southwest 362 417 13,900  Level Boston Center
06:14PM 41.8933 -73.4747 229° Southwest 356 410 13,900 -120 Level Boston Center
06:15PM 41.8342 -73.5631 228° Southwest 356 410 13,700 -1,260 Descending Boston Center
06:16PM 41.7728 -73.6592 229° Southwest 331 381 11,500 -1,800 Descending Boston Center
06:17PM 41.7261 -73.7308 229° Southwest 306 352 10,200 -1,320 Descending Boston Center
06:18PM 41.6547 -73.7681 201° Southwest 253 291 8,900 -660 Descending Boston Center
06:19PM 41.5833 -73.7667 179° South 275 316 9,000  Climbing New York TRACON
06:20PM 41.5167 -73.7833 191° South 274 315 9,000  Level New York TRACON
06:21PM 41.4500 -73.7833 180° South 269 310 9,000 -480 Level New York TRACON
06:22PM 41.3667 -73.8000 189° South 267 307 8,100 -540 Descending New York TRACON
06:23PM 41.3000 -73.7500 151° Southeast 289 333 8,000 -60 Descending New York TRACON
06:24PM 41.2333 -73.7000 151° Southeast 282 325 8,000 -600 Level New York TRACON
06:25PM 41.1667 -73.6500 151° Southeast 282 325 6,900 -1,200 Descending New York TRACON
06:26PM 41.1000 -73.6167 159° South 270 311 5,700 -960 Descending New York TRACON
06:27PM 41.0333 -73.6500 201° Southwest 247 284 5,000 -660 Descending New York TRACON
06:28PM 40.9833 -73.7000 217° Southwest 235 270 4,400 -600 Descending New York TRACON
06:29PM 40.9333 -73.7500 217° Southwest 202 232 3,800 -1,020 Descending New York TRACON
06:30PM 40.8833 -73.7833 207° Southwest 195 224 2,400 -1,260 Descending New York TRACON
06:31PM 40.8500 -73.8167 217° Southwest 165 190 1,500 -900 Descending New York TRACON
06:32PM 40.8167 -73.8500 217° Southwest 131 151 700 -840 Descending New York TRACON